Time;durP1;ratioP1;P1;durP2;ratioP2;P2;SDS_P1;SDS_P2;PMS_P1;PMS_P2;Temp;Humidity;BMP_temperature;BMP_pressure;BME280_temperature;BME280_humidity;BME280_pressure;Samples;Min_cycle;Max_cycle;Signal;HPM_P1;HPM_P2
2022/09/03 00:00:53;;;;;;;2.60;1.50;;;;;;;;;;5053620;28;20446;-73
2022/09/03 00:03:23;;;;;;;4.23;1.80;;;;;;;;;;5053570;28;20525;-73
2022/09/03 00:05:56;;;;;;;3.27;1.60;;;;;;;;;;5053370;28;20525;-73
2022/09/03 00:08:29;;;;;;;1.90;1.80;;;;;;;;;;5053029;28;21006;-73
2022/09/03 00:10:58;;;;;;;3.10;1.73;;;;;;;;;;5053168;28;20773;-73
2022/09/03 00:13:28;;;;;;;2.90;1.60;;;;;;;;;;5053025;28;20481;-73
2022/09/03 00:15:56;;;;;;;3.77;2.07;;;;;;;;;;5053240;28;20522;-73
2022/09/03 00:18:25;;;;;;;2.07;1.87;;;;;;;;;;5054056;28;20444;-73
2022/09/03 00:20:56;;;;;;;1.83;1.73;;;;;;;;;;5057273;28;20468;-73
2022/09/03 00:23:25;;;;;;;2.33;1.83;;;;;;;;;;5057544;28;20907;-74
2022/09/03 00:25:54;;;;;;;2.00;1.90;;;;;;;;;;5056827;28;20935;-73
2022/09/03 00:28:24;;;;;;;1.50;1.40;;;;;;;;;;5056888;28;20491;-73
2022/09/03 00:30:55;;;;;;;1.47;1.37;;;;;;;;;;5057023;28;20445;-73
2022/09/03 00:33:25;;;;;;;2.70;1.50;;;;;;;;;;5057238;28;20476;-73
2022/09/03 00:35:55;;;;;;;4.43;2.27;;;;;;;;;;5056684;28;20536;-73
2022/09/03 00:38:23;;;;;;;1.60;1.50;;;;;;;;;;5056971;28;20445;-73
2022/09/03 00:40:58;;;;;;;2.93;2.00;;;;;;;;;;5056904;28;20444;-73
2022/09/03 00:43:31;;;;;;;2.13;1.93;;;;;;;;;;5056987;28;20448;-73
2022/09/03 00:46:05;;;;;;;2.17;1.60;;;;;;;;;;5056816;28;20462;-73
2022/09/03 00:48:36;;;;;;;2.80;1.57;;;;;;;;;;5057289;28;20437;-73
2022/09/03 00:51:10;;;;;;;2.90;2.00;;;;;;;;;;5056485;28;20502;-73
2022/09/03 00:53:41;;;;;;;5.13;1.73;;;;;;;;;;5057202;28;20476;-73
2022/09/03 00:56:15;;;;;;;2.30;1.63;;;;;;;;;;5056310;28;20854;-73
2022/09/03 00:58:50;;;;;;;1.83;1.70;;;;;;;;;;5056979;28;20432;-73
2022/09/03 01:01:19;;;;;;;1.90;1.80;;;;;;;;;;5056587;28;20430;-73
2022/09/03 01:03:55;;;;;;;2.73;1.93;;;;;;;;;;5056501;28;20443;-74
2022/09/03 01:06:25;;;;;;;2.40;1.80;;;;;;;;;;5056092;28;20485;-74
2022/09/03 01:09:02;;;;;;;3.57;2.07;;;;;;;;;;5055884;28;20834;-73
2022/09/03 01:11:34;;;;;;;1.90;1.80;;;;;;;;;;5056353;28;20463;-73
2022/09/03 01:14:05;;;;;;;2.93;1.80;;;;;;;;;;5056967;28;20403;-73
2022/09/03 01:16:38;;;;;;;3.97;2.10;;;;;;;;;;5055902;28;20431;-73
2022/09/03 01:19:12;;;;;;;4.13;1.63;;;;;;;;;;5056001;28;20465;-73
2022/09/03 01:21:50;;;;;;;2.63;1.77;;;;;;;;;;5055808;28;20517;-73
2022/09/03 01:24:45;;;;;;;3.17;1.93;;;;;;;;;;5056876;28;20437;-73
2022/09/03 01:27:20;;;;;;;1.77;1.50;;;;;;;;;;5020711;28;20957;-73
2022/09/03 01:29:54;;;;;;;1.77;1.67;;;;;;;;;;5055489;28;20435;-72
2022/09/03 01:32:27;;;;;;;2.87;1.57;;;;;;;;;;5055777;28;20977;-73
2022/09/03 01:35:00;;;;;;;2.30;1.67;;;;;;;;;;5056201;28;20426;-73
2022/09/03 01:37:32;;;;;;;2.10;1.90;;;;;;;;;;5056443;28;20454;-73
2022/09/03 01:40:03;;;;;;;1.70;1.60;;;;;;;;;;5055623;28;20916;-73
2022/09/03 01:42:39;;;;;;;3.97;2.40;;;;;;;;;;5055964;28;20538;-73
2022/09/03 01:45:23;;;;;;;3.40;1.90;;;;;;;;;;5055391;28;20496;-73
2022/09/03 01:47:57;;;;;;;4.13;1.70;;;;;;;;;;5056160;28;20837;-73
2022/09/03 01:50:35;;;;;;;1.60;1.50;;;;;;;;;;5055339;28;20930;-73
2022/09/03 01:53:06;;;;;;;3.00;2.00;;;;;;;;;;5055627;28;20465;-73
2022/09/03 01:55:34;;;;;;;4.57;2.03;;;;;;;;;;5055139;28;20524;-73
2022/09/03 01:58:05;;;;;;;2.70;1.73;;;;;;;;;;5055454;28;20871;-73
2022/09/03 02:00:35;;;;;;;1.70;1.60;;;;;;;;;;5055853;28;20433;-73
2022/09/03 02:03:04;;;;;;;2.97;1.77;;;;;;;;;;5055937;28;20520;-72
2022/09/03 02:05:34;;;;;;;3.07;1.77;;;;;;;;;;5055653;28;20576;-72
2022/09/03 02:08:02;;;;;;;2.47;1.70;;;;;;;;;;5055281;28;20887;-72
2022/09/03 02:10:32;;;;;;;1.67;1.57;;;;;;;;;;5054570;28;20572;-72
2022/09/03 02:13:02;;;;;;;1.80;1.70;;;;;;;;;;5055141;28;20570;-72
2022/09/03 02:15:33;;;;;;;1.83;1.60;;;;;;;;;;5055158;28;20484;-73
2022/09/03 02:18:03;;;;;;;1.80;1.63;;;;;;;;;;5055719;28;20433;-73
2022/09/03 02:20:30;;;;;;;1.60;1.50;;;;;;;;;;5054662;28;21026;-72
2022/09/03 02:22:58;;;;;;;2.03;1.80;;;;;;;;;;5055026;28;20816;-73
2022/09/03 02:25:30;;;;;;;1.83;1.73;;;;;;;;;;5054522;28;20448;-72
2022/09/03 02:27:59;;;;;;;7.80;1.57;;;;;;;;;;5055114;28;20440;-72
2022/09/03 02:30:26;;;;;;;2.10;1.60;;;;;;;;;;5054436;28;20495;-72
2022/09/03 02:32:54;;;;;;;2.10;1.90;;;;;;;;;;5054493;28;20512;-72
2022/09/03 02:35:23;;;;;;;1.90;1.50;;;;;;;;;;5054501;28;20518;-72
2022/09/03 02:37:51;;;;;;;1.70;1.60;;;;;;;;;;5054754;28;20441;-72
2022/09/03 02:40:18;;;;;;;2.90;1.47;;;;;;;;;;5054785;28;20481;-72
2022/09/03 02:42:47;;;;;;;3.53;2.00;;;;;;;;;;5053784;28;20980;-72
2022/09/03 02:45:20;;;;;;;2.30;1.87;;;;;;;;;;5054754;28;20551;-72
2022/09/03 02:47:48;;;;;;;1.73;1.60;;;;;;;;;;5054447;28;20438;-72
2022/09/03 02:50:15;;;;;;;1.60;1.50;;;;;;;;;;5054198;28;20533;-74
2022/09/03 02:52:44;;;;;;;1.60;1.50;;;;;;;;;;5054022;28;20564;-72
2022/09/03 02:55:11;;;;;;;1.80;1.70;;;;;;;;;;5054094;28;20495;-74
2022/09/03 02:57:38;;;;;;;3.13;1.70;;;;;;;;;;5054358;28;20446;-74
2022/09/03 03:00:06;;;;;;;1.97;1.77;;;;;;;;;;5054369;28;20444;-74
2022/09/03 03:02:34;;;;;;;2.23;2.03;;;;;;;;;;5053916;28;20495;-73
2022/09/03 03:05:01;;;;;;;1.67;1.57;;;;;;;;;;5054291;28;20975;-74
2022/09/03 03:07:28;;;;;;;1.70;1.60;;;;;;;;;;5054203;28;20790;-74
2022/09/03 03:09:58;;;;;;;2.30;1.50;;;;;;;;;;5053978;28;20479;-74
2022/09/03 03:12:25;;;;;;;1.63;1.53;;;;;;;;;;5054244;28;20446;-73
2022/09/03 03:14:52;;;;;;;2.60;1.83;;;;;;;;;;5054447;28;20442;-73
2022/09/03 03:17:19;;;;;;;3.03;1.90;;;;;;;;;;5054009;28;20448;-74
2022/09/03 03:19:48;;;;;;;2.23;1.87;;;;;;;;;;5053988;28;20553;-73
2022/09/03 03:22:15;;;;;;;1.50;1.40;;;;;;;;;;5054174;28;20481;-73
2022/09/03 03:24:42;;;;;;;1.70;1.60;;;;;;;;;;5053660;28;20530;-73
2022/09/03 03:27:12;;;;;;;1.73;1.60;;;;;;;;;;5053517;28;20446;-74
2022/09/03 03:29:39;;;;;;;3.30;1.90;;;;;;;;;;5054181;28;20433;-74
2022/09/03 03:32:06;;;;;;;1.70;1.60;;;;;;;;;;5053789;28;20450;-74
2022/09/03 03:34:34;;;;;;;1.60;1.50;;;;;;;;;;5053715;28;20523;-72
2022/09/03 03:37:01;;;;;;;1.70;1.50;;;;;;;;;;5053291;28;20537;-73
2022/09/03 03:39:28;;;;;;;1.80;1.70;;;;;;;;;;5053682;28;20532;-73
2022/09/03 03:41:56;;;;;;;1.67;1.57;;;;;;;;;;5053236;28;20921;-72
2022/09/03 03:44:25;;;;;;;2.07;1.77;;;;;;;;;;5053797;28;20447;-73
2022/09/03 03:46:52;;;;;;;7.43;3.20;;;;;;;;;;5053454;28;20994;-73
2022/09/03 03:49:19;;;;;;;3.07;1.63;;;;;;;;;;5053394;28;20433;-73
2022/09/03 03:51:47;;;;;;;2.33;1.60;;;;;;;;;;5053433;28;20458;-73
2022/09/03 03:54:14;;;;;;;1.67;1.57;;;;;;;;;;5053374;28;20589;-74
2022/09/03 03:56:41;;;;;;;1.80;1.60;;;;;;;;;;5052971;28;20478;-74
2022/09/03 03:59:08;;;;;;;3.23;1.90;;;;;;;;;;5053408;28;20559;-73
2022/09/03 04:01:37;;;;;;;2.10;1.90;;;;;;;;;;5053806;28;20511;-78
2022/09/03 04:04:04;;;;;;;2.50;1.60;;;;;;;;;;5053038;28;21021;-72
2022/09/03 04:06:31;;;;;;;2.10;1.90;;;;;;;;;;5053341;28;20437;-72
2022/09/03 04:08:59;;;;;;;1.77;1.67;;;;;;;;;;5053050;28;20501;-73
2022/09/03 04:11:26;;;;;;;4.40;1.83;;;;;;;;;;5053454;28;20525;-73
2022/09/03 04:13:54;;;;;;;2.50;1.70;;;;;;;;;;5053157;28;20473;-72
2022/09/03 04:16:22;;;;;;;2.33;1.83;;;;;;;;;;5053383;28;20963;-72
2022/09/03 04:18:51;;;;;;;3.33;1.87;;;;;;;;;;5053200;28;20524;-72
2022/09/03 04:21:19;;;;;;;1.90;1.70;;;;;;;;;;5052424;28;20449;-72
2022/09/03 04:23:47;;;;;;;2.87;1.63;;;;;;;;;;5053189;28;20448;-73
2022/09/03 04:26:15;;;;;;;2.83;1.83;;;;;;;;;;5052930;28;20438;-73
2022/09/03 04:28:44;;;;;;;4.47;2.37;;;;;;;;;;5053325;28;20433;-72
2022/09/03 04:31:12;;;;;;;3.10;2.00;;;;;;;;;;5053452;28;20450;-72
2022/09/03 04:33:39;;;;;;;2.90;1.80;;;;;;;;;;5052639;28;20894;-72
2022/09/03 04:36:09;;;;;;;2.10;1.77;;;;;;;;;;5053317;28;20443;-72
2022/09/03 04:38:37;;;;;;;3.80;1.83;;;;;;;;;;5052967;28;20473;-73
2022/09/03 04:41:04;;;;;;;1.70;1.60;;;;;;;;;;5053439;28;20528;-72
2022/09/03 04:43:32;;;;;;;2.57;2.03;;;;;;;;;;5052637;28;20487;-73
2022/09/03 04:45:59;;;;;;;2.13;1.70;;;;;;;;;;5053544;28;20460;-72
2022/09/03 04:48:26;;;;;;;1.63;1.53;;;;;;;;;;5052659;28;20454;-72
2022/09/03 04:50:54;;;;;;;2.00;1.90;;;;;;;;;;5052866;28;20540;-73
2022/09/03 04:53:23;;;;;;;2.47;2.20;;;;;;;;;;5052778;28;20478;-72
2022/09/03 04:55:50;;;;;;;3.27;2.50;;;;;;;;;;5052888;28;20485;-72
2022/09/03 04:58:18;;;;;;;1.87;1.63;;;;;;;;;;5052229;28;20453;-73
2022/09/03 05:00:45;;;;;;;3.23;1.90;;;;;;;;;;5052811;28;20528;-73
2022/09/03 05:03:12;;;;;;;4.70;2.13;;;;;;;;;;5052435;28;20542;-73
2022/09/03 05:05:39;;;;;;;2.23;1.63;;;;;;;;;;5055438;28;20520;-73
2022/09/03 05:08:07;;;;;;;5.10;1.73;;;;;;;;;;5055791;28;20452;-73
2022/09/03 05:10:35;;;;;;;2.57;1.83;;;;;;;;;;5056067;28;20443;-73
2022/09/03 05:13:03;;;;;;;1.97;1.87;;;;;;;;;;5056028;28;20546;-73
2022/09/03 05:15:31;;;;;;;2.10;1.70;;;;;;;;;;5055808;28;20447;-73
2022/09/03 05:18:00;;;;;;;2.10;1.90;;;;;;;;;;5055665;28;20887;-73
2022/09/03 05:20:28;;;;;;;2.40;2.20;;;;;;;;;;5055945;28;20807;-72
2022/09/03 05:22:55;;;;;;;1.70;1.60;;;;;;;;;;5055533;28;20446;-72
2022/09/03 05:25:23;;;;;;;2.00;1.80;;;;;;;;;;5055547;28;20500;-72
2022/09/03 05:27:53;;;;;;;2.53;1.73;;;;;;;;;;5055590;28;20937;-71
2022/09/03 05:30:22;;;;;;;2.10;1.90;;;;;;;;;;5055848;28;20465;-72
2022/09/03 05:32:49;;;;;;;2.77;2.00;;;;;;;;;;5055619;28;20931;-72
2022/09/03 05:35:17;;;;;;;1.97;1.87;;;;;;;;;;5055527;28;20524;-72
2022/09/03 05:37:44;;;;;;;3.00;2.10;;;;;;;;;;5055560;28;20442;-72
2022/09/03 05:40:12;;;;;;;3.63;1.97;;;;;;;;;;5056001;28;20501;-72
2022/09/03 05:42:39;;;;;;;4.60;2.10;;;;;;;;;;5055854;28;20508;-72
2022/09/03 05:45:10;;;;;;;3.00;2.20;;;;;;;;;;5055303;28;20537;-72
2022/09/03 05:47:38;;;;;;;4.13;2.27;;;;;;;;;;5055877;28;20516;-72
2022/09/03 05:50:07;;;;;;;1.97;1.77;;;;;;;;;;5055172;28;20504;-72
2022/09/03 05:52:34;;;;;;;2.13;1.80;;;;;;;;;;5055687;28;20438;-72
2022/09/03 05:55:01;;;;;;;1.93;1.83;;;;;;;;;;5055476;28;20478;-72
2022/09/03 05:57:29;;;;;;;2.40;1.90;;;;;;;;;;5055507;28;20537;-72
2022/09/03 05:59:56;;;;;;;3.93;2.10;;;;;;;;;;5055122;28;20446;-72
2022/09/03 06:02:25;;;;;;;2.73;2.53;;;;;;;;;;5055883;28;20521;-72
2022/09/03 06:04:53;;;;;;;7.77;7.07;;;;;;;;;;5055189;28;20968;-73
2022/09/03 06:07:21;;;;;;;2.07;1.67;;;;;;;;;;5055395;28;20987;-72
2022/09/03 06:09:48;;;;;;;1.77;1.67;;;;;;;;;;5054935;28;20485;-72
2022/09/03 06:12:15;;;;;;;2.37;2.17;;;;;;;;;;5054949;28;20453;-72
2022/09/03 06:14:43;;;;;;;2.40;2.20;;;;;;;;;;5054888;28;20473;-72
2022/09/03 06:17:11;;;;;;;3.00;1.97;;;;;;;;;;5054044;28;20448;-72
2022/09/03 06:19:40;;;;;;;3.83;2.47;;;;;;;;;;5054365;28;20463;-72
2022/09/03 06:22:07;;;;;;;5.13;2.03;;;;;;;;;;5055208;28;20613;-72
2022/09/03 06:24:35;;;;;;;6.03;1.80;;;;;;;;;;5054806;28;20477;-72
2022/09/03 06:27:02;;;;;;;3.30;1.90;;;;;;;;;;5054674;28;20503;-71
2022/09/03 06:29:30;;;;;;;3.30;2.00;;;;;;;;;;5054877;28;20448;-72
2022/09/03 06:31:58;;;;;;;2.00;1.80;;;;;;;;;;5054884;28;20525;-72
2022/09/03 06:34:25;;;;;;;2.87;2.00;;;;;;;;;;5055056;28;20966;-73
2022/09/03 06:36:54;;;;;;;2.40;1.97;;;;;;;;;;5054850;28;20473;-72
2022/09/03 06:39:22;;;;;;;2.60;1.93;;;;;;;;;;5054367;28;20541;-73
2022/09/03 06:41:50;;;;;;;2.97;2.10;;;;;;;;;;5054483;28;20448;-72
2022/09/03 06:44:18;;;;;;;2.90;2.43;;;;;;;;;;5054460;28;20446;-72
2022/09/03 06:46:46;;;;;;;2.40;2.20;;;;;;;;;;5054593;28;20542;-73
2022/09/03 06:49:13;;;;;;;2.30;2.10;;;;;;;;;;5054064;28;20444;-72
2022/09/03 06:51:42;;;;;;;10.60;2.30;;;;;;;;;;5054527;28;20495;-73
2022/09/03 06:54:11;;;;;;;2.53;2.33;;;;;;;;;;5053997;28;20478;-73
2022/09/03 06:56:39;;;;;;;2.87;2.43;;;;;;;;;;5054113;28;20454;-74
2022/09/03 06:59:07;;;;;;;7.00;2.20;;;;;;;;;;5054348;28;20525;-72
2022/09/03 07:01:35;;;;;;;4.67;2.40;;;;;;;;;;5054371;28;20449;-73
2022/09/03 07:04:03;;;;;;;3.00;2.37;;;;;;;;;;5054008;28;20930;-73
2022/09/03 07:06:32;;;;;;;2.80;2.23;;;;;;;;;;5054315;28;20456;-73
2022/09/03 07:08:59;;;;;;;2.97;2.20;;;;;;;;;;5054126;28;20475;-73
2022/09/03 07:11:32;;;;;;;2.83;1.97;;;;;;;;;;5054101;28;20439;-73
2022/09/03 07:13:59;;;;;;;3.00;2.17;;;;;;;;;;5053794;28;20501;-73
2022/09/03 07:16:27;;;;;;;2.50;2.17;;;;;;;;;;5053961;28;20438;-73
2022/09/03 07:18:55;;;;;;;2.47;2.10;;;;;;;;;;5054220;28;20487;-73
2022/09/03 07:21:23;;;;;;;3.10;1.90;;;;;;;;;;5053915;28;20442;-73
2022/09/03 07:23:51;;;;;;;2.83;2.20;;;;;;;;;;5054069;28;20538;-73
2022/09/03 07:26:20;;;;;;;3.23;2.20;;;;;;;;;;5053894;28;20510;-73
2022/09/03 07:28:48;;;;;;;3.00;2.20;;;;;;;;;;5053621;28;20442;-72
2022/09/03 07:31:18;;;;;;;3.83;2.00;;;;;;;;;;5053743;28;20526;-72
2022/09/03 07:33:46;;;;;;;2.60;2.13;;;;;;;;;;5053834;28;20453;-72
2022/09/03 07:36:15;;;;;;;2.90;2.10;;;;;;;;;;5053778;28;20445;-72
2022/09/03 07:38:43;;;;;;;3.77;2.37;;;;;;;;;;5053636;28;20448;-72
2022/09/03 07:41:11;;;;;;;9.50;2.67;;;;;;;;;;5053505;28;20441;-72
2022/09/03 07:43:42;;;;;;;5.60;2.40;;;;;;;;;;5053267;28;20452;-72
2022/09/03 07:46:11;;;;;;;6.57;2.23;;;;;;;;;;5053216;28;20909;-72
2022/09/03 07:48:39;;;;;;;4.57;2.40;;;;;;;;;;5053551;28;20465;-72
2022/09/03 07:51:07;;;;;;;3.30;2.00;;;;;;;;;;5052071;28;20448;-72
2022/09/03 07:53:34;;;;;;;3.10;2.43;;;;;;;;;;5051991;28;20485;-72
2022/09/03 07:56:02;;;;;;;2.07;1.87;;;;;;;;;;5052874;28;20527;-74
2022/09/03 07:58:29;;;;;;;2.43;2.23;;;;;;;;;;5053201;28;20456;-74
2022/09/03 08:00:57;;;;;;;24.57;3.67;;;;;;;;;;5052882;28;20440;-73
2022/09/03 08:03:26;;;;;;;4.30;2.10;;;;;;;;;;5052996;28;20535;-73
2022/09/03 08:05:54;;;;;;;3.40;2.10;;;;;;;;;;5053298;28;20536;-72
2022/09/03 08:08:22;;;;;;;3.33;2.47;;;;;;;;;;5052925;28;20443;-73
2022/09/03 08:10:49;;;;;;;2.10;1.90;;;;;;;;;;5052972;28;20440;-73
2022/09/03 08:13:17;;;;;;;3.40;2.23;;;;;;;;;;5053345;28;20438;-72
2022/09/03 08:15:44;;;;;;;4.97;2.10;;;;;;;;;;5052776;28;21006;-72
2022/09/03 08:18:11;;;;;;;3.07;2.27;;;;;;;;;;5053272;28;20795;-73
2022/09/03 08:20:40;;;;;;;6.60;2.60;;;;;;;;;;5052762;28;20438;-73
2022/09/03 08:23:07;;;;;;;8.23;4.20;;;;;;;;;;5052662;28;20547;-73
2022/09/03 08:25:34;;;;;;;1.90;1.77;;;;;;;;;;5053063;28;20456;-73
2022/09/03 08:28:02;;;;;;;2.90;1.70;;;;;;;;;;5053483;28;20775;-73
2022/09/03 08:30:29;;;;;;;2.70;1.57;;;;;;;;;;5053004;28;20441;-72
2022/09/03 08:32:56;;;;;;;3.23;2.03;;;;;;;;;;5052799;28;20455;-73
2022/09/03 08:35:23;;;;;;;2.50;1.73;;;;;;;;;;5052692;28;20532;-73
2022/09/03 08:37:52;;;;;;;2.67;1.90;;;;;;;;;;5052774;28;20443;-73
2022/09/03 08:40:23;;;;;;;4.63;1.70;;;;;;;;;;5054476;28;20550;-73
2022/09/03 08:42:57;;;;;;;2.77;2.57;;;;;;;;;;5056872;28;20431;-73
2022/09/03 08:45:25;;;;;;;2.13;1.80;;;;;;;;;;5056640;28;20431;-73
2022/09/03 08:47:54;;;;;;;6.30;1.60;;;;;;;;;;5056806;28;20450;-73
2022/09/03 08:50:25;;;;;;;3.63;1.80;;;;;;;;;;5056822;28;20440;-72
2022/09/03 08:53:00;;;;;;;2.10;1.90;;;;;;;;;;5056353;28;20534;-73
2022/09/03 08:55:29;;;;;;;6.30;1.83;;;;;;;;;;5057096;28;20506;-73
2022/09/03 08:58:01;;;;;;;2.30;2.10;;;;;;;;;;5056548;28;20524;-72
2022/09/03 09:00:35;;;;;;;2.50;2.00;;;;;;;;;;5056410;28;20422;-72
2022/09/03 09:03:10;;;;;;;2.20;1.97;;;;;;;;;;5057034;28;20463;-72
2022/09/03 09:05:43;;;;;;;4.50;1.70;;;;;;;;;;5056452;28;20917;-73
2022/09/03 09:08:15;;;;;;;3.43;1.80;;;;;;;;;;5055819;28;20522;-72
2022/09/03 09:10:45;;;;;;;1.97;1.87;;;;;;;;;;5056135;28;20451;-72
2022/09/03 09:13:18;;;;;;;4.83;2.10;;;;;;;;;;5056285;28;20438;-72
2022/09/03 09:15:49;;;;;;;1.90;1.60;;;;;;;;;;5056728;28;20551;-72
2022/09/03 09:18:21;;;;;;;4.33;1.80;;;;;;;;;;5056271;28;20440;-73
2022/09/03 09:20:50;;;;;;;3.17;1.87;;;;;;;;;;5055896;28;20468;-72
2022/09/03 09:23:24;;;;;;;1.60;1.50;;;;;;;;;;5056231;28;20538;-74
2022/09/03 09:25:52;;;;;;;3.50;3.20;;;;;;;;;;5056205;28;20497;-74
2022/09/03 09:28:20;;;;;;;2.10;1.90;;;;;;;;;;5055742;28;20443;-72
2022/09/03 09:30:48;;;;;;;6.93;1.83;;;;;;;;;;5056048;28;20447;-74
2022/09/03 09:33:16;;;;;;;1.63;1.50;;;;;;;;;;5055992;28;20480;-73
2022/09/03 09:35:43;;;;;;;1.90;1.70;;;;;;;;;;5056186;28;20555;-73
2022/09/03 09:38:11;;;;;;;2.07;1.87;;;;;;;;;;5055356;28;20447;-74
2022/09/03 09:40:41;;;;;;;5.30;2.00;;;;;;;;;;5055834;28;20451;-73
2022/09/03 09:43:10;;;;;;;2.80;1.70;;;;;;;;;;5055681;28;20441;-73
2022/09/03 09:45:39;;;;;;;1.80;1.70;;;;;;;;;;5055471;28;20815;-73
2022/09/03 09:48:09;;;;;;;2.90;1.90;;;;;;;;;;5055750;28;20540;-73
2022/09/03 09:50:37;;;;;;;2.60;1.97;;;;;;;;;;5055766;28;20788;-73
2022/09/03 09:53:13;;;;;;;5.53;2.30;;;;;;;;;;5055206;28;20479;-73
2022/09/03 09:55:50;;;;;;;3.53;2.20;;;;;;;;;;5055592;28;20487;-73
2022/09/03 09:58:20;;;;;;;3.67;2.20;;;;;;;;;;5055553;28;20439;-73
2022/09/03 10:00:55;;;;;;;4.20;2.10;;;;;;;;;;5055394;28;20525;-74
2022/09/03 10:03:23;;;;;;;5.00;2.10;;;;;;;;;;5054240;28;20496;-73
2022/09/03 10:05:59;;;;;;;3.53;1.93;;;;;;;;;;5055811;28;20543;-74
2022/09/03 10:08:26;;;;;;;1.77;1.67;;;;;;;;;;5055017;28;20447;-74
2022/09/03 10:10:54;;;;;;;4.90;2.27;;;;;;;;;;5055269;28;20436;-74
2022/09/03 10:13:25;;;;;;;2.60;2.00;;;;;;;;;;5055292;28;20536;-74
2022/09/03 10:15:56;;;;;;;2.30;2.10;;;;;;;;;;5054881;28;20469;-73
2022/09/03 10:18:27;;;;;;;2.77;1.97;;;;;;;;;;5054702;28;20527;-74
2022/09/03 10:20:58;;;;;;;4.00;2.27;;;;;;;;;;5055041;28;20430;-73
2022/09/03 10:23:27;;;;;;;5.63;1.73;;;;;;;;;;5054663;28;20433;-73
2022/09/03 10:26:06;;;;;;;2.70;1.80;;;;;;;;;;5054900;28;20448;-73
2022/09/03 10:28:40;;;;;;;3.03;2.13;;;;;;;;;;5054484;28;20425;-73
2022/09/03 10:31:22;;;;;;;2.27;2.00;;;;;;;;;;5054645;28;20425;-74
2022/09/03 10:33:54;;;;;;;4.70;2.53;;;;;;;;;;5042593;28;20485;-73
2022/09/03 10:36:24;;;;;;;2.40;1.90;;;;;;;;;;5054856;28;21024;-73
2022/09/03 10:38:54;;;;;;;3.20;1.80;;;;;;;;;;5054748;28;20453;-73
2022/09/03 10:41:29;;;;;;;4.50;2.40;;;;;;;;;;5054741;28;20532;-73
2022/09/03 10:44:05;;;;;;;3.33;1.93;;;;;;;;;;5054731;28;20519;-73
2022/09/03 10:46:37;;;;;;;2.73;2.30;;;;;;;;;;5054333;28;20483;-73
2022/09/03 10:49:26;;;;;;;4.20;2.43;;;;;;;;;;5054228;28;20433;-73
2022/09/03 10:51:58;;;;;;;2.50;1.60;;;;;;;;;;5049813;28;20496;-72
2022/09/03 10:54:33;;;;;;;7.07;2.50;;;;;;;;;;5054272;28;20941;-73
2022/09/03 10:57:10;;;;;;;4.10;2.07;;;;;;;;;;5054406;28;20846;-73
2022/09/03 10:59:45;;;;;;;1.87;1.67;;;;;;;;;;5053817;28;20430;-73
2022/09/03 11:02:29;;;;;;;2.00;1.90;;;;;;;;;;5054217;28;20440;-73
2022/09/03 11:05:01;;;;;;;3.90;2.70;;;;;;;;;;5054276;28;20825;-73
2022/09/03 11:07:32;;;;;;;4.07;2.83;;;;;;;;;;5052705;28;20453;-74
2022/09/03 11:10:05;;;;;;;5.30;2.13;;;;;;;;;;5053701;28;21022;-73
2022/09/03 11:12:36;;;;;;;2.47;2.27;;;;;;;;;;5053911;28;20426;-73
2022/09/03 11:15:06;;;;;;;5.90;2.10;;;;;;;;;;5053509;28;20554;-73
2022/09/03 11:17:39;;;;;;;4.00;2.20;;;;;;;;;;5054112;28;20423;-73
2022/09/03 11:20:11;;;;;;;5.83;2.43;;;;;;;;;;5054068;28;20439;-72
2022/09/03 11:22:40;;;;;;;4.23;1.90;;;;;;;;;;5054064;28;20521;-74
2022/09/03 11:25:09;;;;;;;3.00;2.03;;;;;;;;;;5052282;28;20466;-73
2022/09/03 11:27:53;;;;;;;2.00;1.80;;;;;;;;;;5053063;28;20438;-72
2022/09/03 11:30:24;;;;;;;1.70;1.60;;;;;;;;;;5052712;28;20435;-73
2022/09/03 11:32:53;;;;;;;3.77;1.80;;;;;;;;;;5053143;28;20873;-73
2022/09/03 11:35:26;;;;;;;2.10;2.00;;;;;;;;;;5053403;28;20481;-74
2022/09/03 11:37:55;;;;;;;3.10;1.80;;;;;;;;;;5053094;28;20435;-74
2022/09/03 11:40:29;;;;;;;2.30;1.87;;;;;;;;;;5053657;28;20500;-73
2022/09/03 11:43:05;;;;;;;5.30;2.33;;;;;;;;;;5054051;28;20463;-73
2022/09/03 11:45:37;;;;;;;2.03;1.93;;;;;;;;;;5053559;28;20426;-73
2022/09/03 11:48:18;;;;;;;5.50;2.10;;;;;;;;;;5053512;28;20535;-73
2022/09/03 11:50:53;;;;;;;6.30;2.40;;;;;;;;;;5053497;28;20446;-72
2022/09/03 11:53:27;;;;;;;2.60;1.70;;;;;;;;;;5053574;28;20489;-73
2022/09/03 11:55:55;;;;;;;2.40;2.20;;;;;;;;;;5053127;28;20465;-73
2022/09/03 11:58:26;;;;;;;4.23;2.00;;;;;;;;;;5053354;28;20493;-73
2022/09/03 12:00:54;;;;;;;2.50;1.80;;;;;;;;;;5053034;28;20435;-73
2022/09/03 12:03:25;;;;;;;2.10;1.90;;;;;;;;;;5052925;28;20444;-75
2022/09/03 12:06:01;;;;;;;1.70;1.60;;;;;;;;;;5053228;28;20432;-75
2022/09/03 12:08:47;;;;;;;3.97;1.67;;;;;;;;;;5052995;28;22180;-75
2022/09/03 12:11:23;;;;;;;10.07;2.20;;;;;;;;;;5053097;28;20449;-75
2022/09/03 12:13:56;;;;;;;2.17;1.97;;;;;;;;;;5053289;28;20888;-75
2022/09/03 12:16:31;;;;;;;3.37;2.07;;;;;;;;;;5056836;28;20567;-75
2022/09/03 12:19:04;;;;;;;5.57;2.00;;;;;;;;;;5057495;28;20523;-75
2022/09/03 12:21:38;;;;;;;5.20;2.97;;;;;;;;;;5056980;28;20428;-74
2022/09/03 12:24:06;;;;;;;2.70;2.10;;;;;;;;;;5057305;28;20433;-73
2022/09/03 12:26:40;;;;;;;3.93;2.30;;;;;;;;;;5056960;28;20452;-73
2022/09/03 12:29:20;;;;;;;1.80;1.70;;;;;;;;;;5057195;28;20525;-73
2022/09/03 12:31:49;;;;;;;3.73;1.90;;;;;;;;;;5057107;28;20853;-74
2022/09/03 12:34:17;;;;;;;2.60;1.80;;;;;;;;;;5056972;28;20529;-73
2022/09/03 12:36:46;;;;;;;2.53;2.33;;;;;;;;;;5056764;28;20517;-74
2022/09/03 12:39:14;;;;;;;2.20;2.03;;;;;;;;;;5056425;28;20868;-74
2022/09/03 12:41:53;;;;;;;2.53;2.33;;;;;;;;;;5056730;28;20480;-73
2022/09/03 12:44:27;;;;;;;2.20;2.00;;;;;;;;;;5056607;28;20519;-73
2022/09/03 12:47:01;;;;;;;5.00;1.90;;;;;;;;;;5056447;28;20975;-73
2022/09/03 12:49:28;;;;;;;2.90;1.70;;;;;;;;;;5056752;28;20437;-73
2022/09/03 12:52:01;;;;;;;6.87;2.93;;;;;;;;;;5056733;28;20440;-74
2022/09/03 12:54:29;;;;;;;4.50;2.20;;;;;;;;;;5056866;28;20461;-80
2022/09/03 12:56:59;;;;;;;6.70;2.80;;;;;;;;;;5056243;28;20479;-75
2022/09/03 12:59:28;;;;;;;4.10;2.10;;;;;;;;;;5056537;28;20458;-76
2022/09/03 13:01:56;;;;;;;2.40;2.20;;;;;;;;;;5056635;28;20484;-76
2022/09/03 13:04:26;;;;;;;3.40;1.70;;;;;;;;;;5056600;28;20527;-75
2022/09/03 13:06:56;;;;;;;2.40;2.20;;;;;;;;;;5056146;28;20925;-75
2022/09/03 13:09:28;;;;;;;3.00;2.10;;;;;;;;;;5056389;28;20481;-78
2022/09/03 13:11:57;;;;;;;2.77;2.00;;;;;;;;;;5056157;28;20964;-80
2022/09/03 13:14:25;;;;;;;3.63;2.00;;;;;;;;;;5056000;28;20452;-79
2022/09/03 13:17:01;;;;;;;6.80;2.30;;;;;;;;;;5055821;28;20481;-81
2022/09/03 13:19:36;;;;;;;2.33;2.13;;;;;;;;;;5056252;28;20514;-79
2022/09/03 13:22:09;;;;;;;6.23;2.60;;;;;;;;;;5055945;28;20465;-80
2022/09/03 13:24:42;;;;;;;2.10;2.00;;;;;;;;;;5055722;28;20466;-78
2022/09/03 13:27:17;;;;;;;3.97;2.20;;;;;;;;;;5055694;28;20434;-80
2022/09/03 13:29:53;;;;;;;18.60;2.30;;;;;;;;;;5056648;28;20423;-80
2022/09/03 13:32:27;;;;;;;2.90;1.53;;;;;;;;;;5056263;28;20461;-79
2022/09/03 13:34:55;;;;;;;3.90;2.20;;;;;;;;;;5055995;28;20460;-80
2022/09/03 13:37:26;;;;;;;2.23;1.80;;;;;;;;;;5055373;28;20541;-80
2022/09/03 13:39:55;;;;;;;4.20;1.90;;;;;;;;;;5055672;28;20958;-79
2022/09/03 13:42:25;;;;;;;3.83;2.03;;;;;;;;;;5055744;28;20451;-80
2022/09/03 13:44:57;;;;;;;2.80;1.80;;;;;;;;;;5055728;28;20435;-79
2022/09/03 13:47:29;;;;;;;5.80;1.80;;;;;;;;;;5055857;28;20419;-80
2022/09/03 13:52:51;;;;;;;2.17;1.77;;;;;;;;;;5055333;28;20420;-78
2022/09/03 13:55:22;;;;;;;1.90;1.70;;;;;;;;;;5055951;28;20432;-76
2022/09/03 13:57:51;;;;;;;2.43;2.00;;;;;;;;;;5055935;28;20476;-79
2022/09/03 14:00:24;;;;;;;1.93;1.80;;;;;;;;;;5054911;28;20487;-79
2022/09/03 14:02:55;;;;;;;3.00;2.00;;;;;;;;;;5055428;28;20410;-81
2022/09/03 14:05:31;;;;;;;5.30;2.20;;;;;;;;;;5055176;28;20501;-79
2022/09/03 14:08:06;;;;;;;2.57;2.37;;;;;;;;;;5055012;28;20416;-81
2022/09/03 14:10:39;;;;;;;3.50;2.30;;;;;;;;;;5054982;28;20506;-81
2022/09/03 14:13:12;;;;;;;4.97;2.53;;;;;;;;;;5055189;28;20493;-82
2022/09/03 14:15:44;;;;;;;2.57;1.93;;;;;;;;;;5054773;28;20426;-81
2022/09/03 14:18:14;;;;;;;4.80;2.00;;;;;;;;;;5055220;28;20438;-82
2022/09/03 14:20:46;;;;;;;2.87;2.43;;;;;;;;;;5055260;28;20792;-82
2022/09/03 14:23:21;;;;;;;4.70;2.20;;;;;;;;;;5055361;28;20459;-81
2022/09/03 14:25:53;;;;;;;2.73;2.07;;;;;;;;;;5055220;28;20469;-81
2022/09/03 14:28:27;;;;;;;2.70;2.40;;;;;;;;;;5055393;28;20435;-81
2022/09/03 14:31:02;;;;;;;2.83;2.10;;;;;;;;;;5054463;28;20434;-81
2022/09/03 14:33:33;;;;;;;7.43;5.70;;;;;;;;;;5054935;28;20447;-81
2022/09/03 14:36:08;;;;;;;4.60;4.17;;;;;;;;;;5054725;28;20445;-81
2022/09/03 14:38:48;;;;;;;8.40;6.67;;;;;;;;;;5053916;28;20541;-81
2022/09/03 14:41:23;;;;;;;6.47;4.93;;;;;;;;;;5054758;28;20866;-80
2022/09/03 14:44:03;;;;;;;6.33;4.37;;;;;;;;;;5054958;28;20539;-81
2022/09/03 14:46:36;;;;;;;3.30;2.97;;;;;;;;;;5054298;28;20434;-81
2022/09/03 14:49:11;;;;;;;4.90;2.90;;;;;;;;;;5054809;28;20534;-81
2022/09/03 14:51:54;;;;;;;2.47;2.27;;;;;;;;;;5054549;28;20485;-80
2022/09/03 14:54:48;;;;;;;11.00;3.73;;;;;;;;;;5054303;28;20433;-82
2022/09/03 14:57:26;;;;;;;3.83;2.30;;;;;;;;;;5018697;28;20526;-81
2022/09/03 15:00:10;;;;;;;3.50;2.73;;;;;;;;;;5054026;28;20432;-81
2022/09/03 15:02:52;;;;;;;3.07;2.60;;;;;;;;;;5052529;28;20505;-82
2022/09/03 15:05:28;;;;;;;2.90;2.30;;;;;;;;;;5054316;28;20838;-81